aviador You're here:

KRBG Decoded Metar

ROSEBURG in OR, USA
Report Time2017-08-24 07:53:00
UTC Time2017-08-24 08:51:12
Flight Rules vfr VFR
Wind020° at 03 kt
W.Decomp.*RWY 34: 2.8 kt HW 1.1 kt RCW
W.Rank020° ranks 4
Current wind is below 020° avg. (5.7)
Visibility9999 m
Phenomena:N/A
Clouds:N/A
Expected CloudBase > 2,400 ft AGL from Temp-Dew spread
CeilingNone
Temp18°C (ISA +4)
Dew Point12°C (68% RH)
AAT17.5°C
QNH1016 hPa
Density Alt1,063 ft
Elevation505 ft
Report Wrong Elevation
Raw Report
METAR KRBG 240753Z AUTO 02003KT 10SM CLR 18/12 A3001 RMK AO2 SLP161
T01830117 402940161=

Extra information for KRBG:More info

Metar Taf Metar & Taf Last 4 Metars F.Rules Stats Wind Profile Meteogram Temp Stats Airport Information Weather charts Add Link Nearby VenuesMetar ALERT Operation Metar Decoded Social comments

AIRNAV info for KRBG